Massamagrell, Spain
Current Conditions -  °F | °C
As of 5:00 PM on Thursday 29 Jan 2015 (Local Time) from LEBT Reporting Station
Clear Clear  
Wind Chill: 66°   Ceiling: Unl
Heat Index: 66°   Visibility: 6mi
Dew Point: 32°   Wind: 17mph
Humidity: 28%   Direction: 250°WSW
Pressure: 29.68"   Gusts: 30mph
Location:  39.57°N, 0.33°W
Report Text: LEBT 291600Z AUTO 25015G26KT 210V300 CAVOK 19/M00 Q1005
Loading
Personal Weather Stations






























Interactive Weather Map New forecast layout! Learn more

10-Day Weather Forecast

Advertisements
Track Severe Weather on mobile